• vieta
  • image
  • image
  • image
mod_vvisit_countermod_vvisit_countermod_vvisit_countermod_vvisit_countermod_vvisit_countermod_vvisit_counter
mod_vvisit_counterŠiandien945
mod_vvisit_counterVakar826
mod_vvisit_counterŠią savaitę4566
mod_vvisit_counterPraėjusią savaitę4288
mod_vvisit_counterŠį mėnesį18126
mod_vvisit_counterPraėjusį mėnesį14213
mod_vvisit_counterViso344909

Mes turime: 4 svečius, 4 bots online
Jūsų IP: 54.196.62.49
 , 
Šiandien: Geg 28, 2016

Šiandien

Šeštadienis, 28 Gegužė 2016

Orų prognozė

Šiauliai 18 °C
   

Orų prognozė aviacijai

[source: ADDS]
METAR
EYSA 281950Z 07003KT CAVOK 18/12 Q1019 BLU NOSIG =
TAF
TAF EYSA 281700Z 2818/2903 07006KT 9000 SCT040 PROB40 TEMPO 2818/2821 TSRA BKN030CB =
SR / SS: 01:59 / 18:51 UTC (EYSA 2016-05-28)

Paieška

Lankytojai

Mes turime 8 svečius online

tic logo lt